createdAt,value
2022-08-31T00:00:05.524Z,17.50
2022-08-31T00:02:05.617Z,17.50
2022-08-31T00:04:05.570Z,17.50
2022-08-31T00:06:05.585Z,17.50
2022-08-31T00:08:05.660Z,17.50
2022-08-31T00:10:05.596Z,17.50
2022-08-31T00:12:05.560Z,17.50
2022-08-31T00:14:05.636Z,17.40
2022-08-31T00:16:05.594Z,17.30
2022-08-31T00:18:05.537Z,17.30
2022-08-31T00:20:05.540Z,17.20
2022-08-31T00:22:05.583Z,17.20
2022-08-31T00:24:05.600Z,17.30
2022-08-31T00:26:05.595Z,17.30
2022-08-31T00:28:05.584Z,17.30
2022-08-31T00:30:05.576Z,17.30
2022-08-31T00:32:05.597Z,17.20
2022-08-31T00:34:35.569Z,17.20
2022-08-31T00:36:35.596Z,17.40
2022-08-31T00:38:35.548Z,17.40
2022-08-31T00:40:44.463Z,17.40
2022-08-31T00:42:35.582Z,17.40
2022-08-31T00:44:35.597Z,17.40
2022-08-31T00:46:35.579Z,17.40
2022-08-31T00:48:35.600Z,17.30
2022-08-31T00:50:35.602Z,17.30
2022-08-31T00:52:37.993Z,17.20
2022-08-31T00:54:35.607Z,17.20
2022-08-31T00:56:35.586Z,17.10
2022-08-31T00:58:35.585Z,17.10
2022-08-31T01:00:35.600Z,17.10
2022-08-31T01:02:35.636Z,17.10
2022-08-31T01:04:35.606Z,17.00
2022-08-31T01:06:35.575Z,17.00
2022-08-31T01:08:35.623Z,17.00
2022-08-31T01:10:35.640Z,17.00
2022-08-31T01:12:35.634Z,16.80
2022-08-31T01:14:35.604Z,16.80
2022-08-31T01:16:35.666Z,16.80
2022-08-31T01:18:35.584Z,16.80
2022-08-31T01:20:35.644Z,16.50
2022-08-31T01:22:35.601Z,16.40
2022-08-31T01:24:35.602Z,16.20
2022-08-31T01:26:35.617Z,16.10
2022-08-31T01:28:35.598Z,16.10
2022-08-31T01:30:35.608Z,16.00
2022-08-31T01:32:35.695Z,16.00
2022-08-31T01:34:35.619Z,15.80
2022-08-31T01:36:35.641Z,15.80
2022-08-31T01:38:35.633Z,15.80
2022-08-31T01:40:35.746Z,15.70
2022-08-31T01:42:35.621Z,15.60
2022-08-31T01:44:35.624Z,15.60
2022-08-31T01:46:35.728Z,15.60
2022-08-31T01:48:35.636Z,15.60
2022-08-31T01:50:35.616Z,15.60
2022-08-31T01:52:35.610Z,15.50
2022-08-31T01:54:35.653Z,15.50
2022-08-31T01:56:35.609Z,15.50
2022-08-31T01:58:35.627Z,15.50
2022-08-31T02:00:35.672Z,15.50
2022-08-31T02:02:35.740Z,15.50
2022-08-31T02:04:35.641Z,15.70
2022-08-31T02:06:35.615Z,15.70
2022-08-31T02:08:35.645Z,15.70
2022-08-31T02:10:35.640Z,15.80
2022-08-31T02:12:35.644Z,15.80
2022-08-31T02:14:35.656Z,15.90
2022-08-31T02:16:35.725Z,15.90
2022-08-31T02:18:35.660Z,16.00
2022-08-31T02:20:35.676Z,16.00
2022-08-31T02:22:35.671Z,16.00
2022-08-31T02:24:35.732Z,16.00
2022-08-31T02:26:35.643Z,16.00
2022-08-31T02:28:35.632Z,16.00
2022-08-31T02:30:35.654Z,16.00
2022-08-31T02:32:35.638Z,16.00
2022-08-31T02:34:35.677Z,16.00
2022-08-31T02:36:35.929Z,16.00
2022-08-31T02:38:35.728Z,16.00
2022-08-31T02:41:05.657Z,15.90
2022-08-31T02:43:05.692Z,15.90
2022-08-31T02:45:05.676Z,15.90
2022-08-31T02:47:05.701Z,15.80
2022-08-31T02:49:05.654Z,15.80
2022-08-31T02:51:05.676Z,15.80
2022-08-31T02:53:05.744Z,15.80
2022-08-31T02:55:05.709Z,15.80
2022-08-31T02:57:05.668Z,15.80
2022-08-31T02:59:05.690Z,15.60
2022-08-31T03:01:05.666Z,15.60
2022-08-31T03:03:05.747Z,15.60
2022-08-31T03:05:06.796Z,15.60
2022-08-31T03:07:05.673Z,15.60
2022-08-31T03:09:05.709Z,15.60
2022-08-31T03:11:05.685Z,15.60
2022-08-31T03:13:05.722Z,15.60
2022-08-31T03:15:05.699Z,15.50
2022-08-31T03:17:05.671Z,15.50
2022-08-31T03:19:05.679Z,15.50
2022-08-31T03:21:05.714Z,15.50
2022-08-31T03:23:05.710Z,15.50
2022-08-31T03:25:05.725Z,15.50
2022-08-31T03:27:05.669Z,15.50
2022-08-31T03:29:05.812Z,15.50
2022-08-31T03:31:05.780Z,15.50
2022-08-31T03:33:05.681Z,15.50
2022-08-31T03:35:05.755Z,15.50
2022-08-31T03:37:05.700Z,15.50
2022-08-31T03:39:05.773Z,15.50
2022-08-31T03:41:05.710Z,15.50
2022-08-31T03:43:05.701Z,15.40
2022-08-31T03:45:05.711Z,15.40
2022-08-31T03:47:05.731Z,15.40
2022-08-31T03:49:05.724Z,15.40
2022-08-31T03:51:05.737Z,15.40
2022-08-31T03:53:05.799Z,15.40
2022-08-31T03:55:05.719Z,15.30
2022-08-31T03:57:05.743Z,15.20
2022-08-31T03:59:05.738Z,15.20
2022-08-31T04:01:05.766Z,15.20
2022-08-31T04:03:05.813Z,15.10
2022-08-31T04:05:05.710Z,15.00
2022-08-31T04:07:05.753Z,15.00
2022-08-31T04:09:05.701Z,15.00
2022-08-31T04:11:05.745Z,15.00
2022-08-31T04:13:05.803Z,15.00
2022-08-31T04:15:05.746Z,15.00
2022-08-31T04:17:05.709Z,15.00
2022-08-31T04:19:07.881Z,15.00
2022-08-31T04:21:05.741Z,15.00
2022-08-31T04:23:05.713Z,14.90
2022-08-31T04:25:05.809Z,14.80
2022-08-31T04:27:05.746Z,14.80
2022-08-31T04:29:08.600Z,14.80
2022-08-31T04:31:05.802Z,14.80
2022-08-31T04:33:05.734Z,14.80
2022-08-31T04:35:05.744Z,15.00
2022-08-31T04:37:05.769Z,15.00
2022-08-31T04:39:05.740Z,15.00
2022-08-31T04:41:35.767Z,15.00
2022-08-31T04:43:35.767Z,15.00
2022-08-31T04:45:35.793Z,15.00
2022-08-31T04:47:35.882Z,15.00
2022-08-31T04:49:35.777Z,15.00
2022-08-31T04:51:35.827Z,15.00
2022-08-31T04:53:35.752Z,15.00
2022-08-31T04:55:35.757Z,15.00
2022-08-31T04:57:35.778Z,15.00
2022-08-31T04:59:35.768Z,15.00
2022-08-31T05:01:39.320Z,15.00
2022-08-31T05:03:35.743Z,15.00
2022-08-31T05:05:35.787Z,15.00
2022-08-31T05:07:35.790Z,15.00
2022-08-31T05:09:35.753Z,15.00
2022-08-31T05:11:35.786Z,15.00
2022-08-31T05:13:35.791Z,15.00
2022-08-31T05:15:35.827Z,15.10
2022-08-31T05:17:35.751Z,15.00
2022-08-31T05:19:40.430Z,15.00
2022-08-31T05:21:35.832Z,15.00
2022-08-31T05:23:35.766Z,15.00
2022-08-31T05:25:35.859Z,15.10
2022-08-31T05:27:35.769Z,15.10
2022-08-31T05:29:35.814Z,15.20
2022-08-31T05:31:35.783Z,15.20
2022-08-31T05:33:35.799Z,15.20
2022-08-31T05:35:35.821Z,15.20
2022-08-31T05:37:35.787Z,15.20
2022-08-31T05:39:35.855Z,15.20
2022-08-31T05:41:35.808Z,15.20
2022-08-31T05:43:35.788Z,15.30
2022-08-31T05:45:35.901Z,15.30
2022-08-31T05:47:35.847Z,15.30
2022-08-31T05:49:35.807Z,15.30
2022-08-31T05:51:38.335Z,15.30
2022-08-31T05:53:35.802Z,15.30
2022-08-31T05:55:35.872Z,15.30
2022-08-31T05:57:35.933Z,15.30
2022-08-31T05:59:35.806Z,15.30
2022-08-31T06:01:35.919Z,15.30
2022-08-31T06:03:35.800Z,15.40
2022-08-31T06:05:35.906Z,15.40
2022-08-31T06:07:35.909Z,15.40
2022-08-31T06:09:35.831Z,15.30
2022-08-31T06:11:35.818Z,15.40
2022-08-31T06:13:35.784Z,15.40
2022-08-31T06:17:36.461Z,15.40
2022-08-31T06:19:36.507Z,15.60
2022-08-31T06:21:36.563Z,15.60
2022-08-31T06:23:36.484Z,15.60
2022-08-31T06:25:36.500Z,15.70
2022-08-31T06:27:36.495Z,15.80
2022-08-31T06:29:36.506Z,15.80
2022-08-31T06:31:36.592Z,16.00
2022-08-31T06:33:36.510Z,16.00
2022-08-31T06:35:36.510Z,16.00
2022-08-31T06:37:36.491Z,16.00
2022-08-31T06:39:36.502Z,16.00
2022-08-31T06:41:36.940Z,15.90
2022-08-31T06:43:36.500Z,15.90
2022-08-31T06:45:36.506Z,16.00
2022-08-31T06:48:06.490Z,15.90
2022-08-31T06:50:06.520Z,15.90
2022-08-31T06:52:06.532Z,15.90
2022-08-31T06:54:27.489Z,16.00
2022-08-31T06:56:06.488Z,16.10
2022-08-31T06:58:06.534Z,16.10
2022-08-31T07:00:06.510Z,16.20
2022-08-31T07:02:06.615Z,16.20
2022-08-31T07:04:06.516Z,16.20
2022-08-31T07:06:06.491Z,16.30
2022-08-31T07:08:06.497Z,16.40
2022-08-31T07:10:06.495Z,16.50
2022-08-31T07:12:06.534Z,16.50
2022-08-31T07:14:07.568Z,16.50
2022-08-31T07:16:06.584Z,16.50
2022-08-31T07:18:10.270Z,16.80
2022-08-31T07:20:06.541Z,16.90
2022-08-31T07:22:06.547Z,16.90
2022-08-31T07:24:06.636Z,16.90
2022-08-31T07:26:06.544Z,17.10
2022-08-31T07:28:06.583Z,17.20
2022-08-31T07:30:06.558Z,17.20
2022-08-31T07:32:06.524Z,17.20
2022-08-31T07:34:06.583Z,17.20
2022-08-31T07:36:06.552Z,17.10
2022-08-31T07:38:06.543Z,17.10
2022-08-31T07:40:07.933Z,17.10
2022-08-31T07:42:06.563Z,17.10
2022-08-31T07:44:06.529Z,17.10
2022-08-31T07:46:06.686Z,17.00
2022-08-31T07:48:06.528Z,17.00
2022-08-31T07:50:06.551Z,17.00
2022-08-31T07:52:06.594Z,17.00
2022-08-31T07:54:06.581Z,17.00
2022-08-31T07:56:06.553Z,17.00
2022-08-31T07:58:06.649Z,17.00
2022-08-31T08:00:06.556Z,17.10
2022-08-31T08:02:06.688Z,17.10
2022-08-31T08:04:06.551Z,17.10
2022-08-31T08:06:06.583Z,17.10
2022-08-31T08:08:10.550Z,17.10
2022-08-31T08:10:06.630Z,17.10
2022-08-31T08:12:07.445Z,17.10
2022-08-31T08:14:08.590Z,17.10
2022-08-31T08:16:06.641Z,17.10
2022-08-31T08:18:06.580Z,17.10
2022-08-31T08:20:11.669Z,17.10
2022-08-31T08:22:06.667Z,17.10
2022-08-31T08:24:06.576Z,17.10
2022-08-31T08:26:06.632Z,17.10
2022-08-31T08:28:22.852Z,17.00
2022-08-31T08:30:06.562Z,17.10
2022-08-31T08:32:06.613Z,17.00
2022-08-31T08:34:06.584Z,17.00
2022-08-31T08:36:06.585Z,17.00
2022-08-31T08:38:07.976Z,17.00
2022-08-31T08:40:06.624Z,17.00
2022-08-31T08:42:06.610Z,17.00
2022-08-31T08:44:06.699Z,17.00
2022-08-31T08:46:25.271Z,17.00
2022-08-31T08:48:36.564Z,17.00
2022-08-31T08:50:36.604Z,17.00
2022-08-31T08:52:36.605Z,16.90
2022-08-31T08:54:36.597Z,17.00
2022-08-31T08:56:36.701Z,17.00
2022-08-31T08:58:36.628Z,17.00
2022-08-31T09:00:36.628Z,17.10
2022-08-31T09:02:36.697Z,17.20
2022-08-31T09:04:36.652Z,17.20
2022-08-31T09:06:45.203Z,17.20
2022-08-31T09:08:36.653Z,17.20
2022-08-31T09:10:36.689Z,17.10
2022-08-31T09:12:36.729Z,17.10
2022-08-31T09:14:36.685Z,17.10
2022-08-31T09:16:36.653Z,17.10
2022-08-31T09:18:36.619Z,17.10
2022-08-31T09:20:36.610Z,17.40
2022-08-31T09:22:36.681Z,17.50
2022-08-31T09:24:36.631Z,17.60
2022-08-31T09:26:36.632Z,17.60
2022-08-31T09:28:36.605Z,17.60
2022-08-31T09:30:36.729Z,17.70
2022-08-31T09:32:36.731Z,17.70
2022-08-31T09:34:36.623Z,17.80
2022-08-31T09:36:36.698Z,17.80
2022-08-31T09:38:36.687Z,17.80
2022-08-31T09:40:36.678Z,17.80
2022-08-31T09:42:36.648Z,17.80
2022-08-31T09:44:36.733Z,17.80
2022-08-31T09:46:36.767Z,17.80
2022-08-31T09:48:36.735Z,17.80
2022-08-31T09:50:36.637Z,18.00
2022-08-31T09:52:36.665Z,18.00
2022-08-31T09:54:36.695Z,18.00
2022-08-31T09:56:36.656Z,18.00
2022-08-31T09:58:36.635Z,18.00
2022-08-31T10:00:37.965Z,18.00
2022-08-31T10:02:36.825Z,18.00
2022-08-31T10:04:36.777Z,18.00
2022-08-31T10:06:36.707Z,18.10
2022-08-31T10:08:36.706Z,18.10
2022-08-31T10:10:36.744Z,18.40
2022-08-31T10:12:36.729Z,18.60
2022-08-31T10:14:36.774Z,18.60
2022-08-31T10:16:36.680Z,18.60
2022-08-31T10:18:36.778Z,18.80
2022-08-31T10:20:36.681Z,18.90
2022-08-31T10:22:36.718Z,18.90
2022-08-31T10:24:36.718Z,18.90
2022-08-31T10:26:36.743Z,18.90
2022-08-31T10:28:36.676Z,18.90
2022-08-31T10:30:36.659Z,18.90
2022-08-31T10:32:36.662Z,18.90
2022-08-31T10:34:36.668Z,18.90
2022-08-31T10:36:36.686Z,18.90
2022-08-31T10:38:36.874Z,18.90
2022-08-31T10:40:36.827Z,19.20
2022-08-31T10:42:36.658Z,19.20
2022-08-31T10:44:36.678Z,19.20
2022-08-31T10:46:36.774Z,19.30
2022-08-31T10:48:36.693Z,19.40
2022-08-31T10:50:36.691Z,19.40
2022-08-31T10:53:06.663Z,19.40
2022-08-31T10:55:06.750Z,19.70
2022-08-31T10:57:06.700Z,19.80
2022-08-31T10:59:06.768Z,19.80
2022-08-31T11:01:06.864Z,19.80
2022-08-31T11:03:06.764Z,20.20
2022-08-31T11:05:06.831Z,20.20
2022-08-31T11:07:06.841Z,20.30
2022-08-31T11:09:06.706Z,20.30
2022-08-31T11:11:06.742Z,20.30
2022-08-31T11:13:06.715Z,20.90
2022-08-31T11:15:06.743Z,21.20
2022-08-31T11:17:06.723Z,21.50
2022-08-31T11:19:09.178Z,21.50
2022-08-31T11:21:06.752Z,21.50
2022-08-31T11:23:06.692Z,21.40
2022-08-31T11:25:06.738Z,21.70
2022-08-31T11:27:06.726Z,21.40
2022-08-31T11:29:06.712Z,21.40
2022-08-31T11:31:06.852Z,21.80
2022-08-31T11:33:06.741Z,22.00
2022-08-31T11:35:06.739Z,22.30
2022-08-31T11:37:06.718Z,22.10
2022-08-31T11:39:06.726Z,22.10
2022-08-31T11:41:06.773Z,22.10
2022-08-31T11:43:06.734Z,22.10
2022-08-31T11:45:06.715Z,21.80
2022-08-31T11:47:06.746Z,21.60
2022-08-31T11:49:06.826Z,21.60
2022-08-31T11:51:06.728Z,21.60
2022-08-31T11:53:06.737Z,21.50
2022-08-31T11:55:06.736Z,21.50
2022-08-31T11:57:06.746Z,21.50
2022-08-31T11:59:06.776Z,22.00
2022-08-31T12:01:06.793Z,22.00
2022-08-31T12:03:06.768Z,22.00
2022-08-31T12:05:06.811Z,22.00
2022-08-31T12:07:06.776Z,22.00
2022-08-31T12:09:06.750Z,22.00
2022-08-31T12:11:06.755Z,22.00
2022-08-31T12:13:06.793Z,22.00
2022-08-31T12:15:06.765Z,22.00
2022-08-31T12:17:06.780Z,22.00
2022-08-31T12:19:06.786Z,22.10
2022-08-31T12:21:06.789Z,22.20
2022-08-31T12:23:06.771Z,22.00
2022-08-31T12:25:06.794Z,22.20
2022-08-31T12:27:06.837Z,22.20
2022-08-31T12:29:06.781Z,21.40
2022-08-31T12:31:06.770Z,21.50
2022-08-31T12:33:06.765Z,21.40
2022-08-31T12:35:06.835Z,21.40
2022-08-31T12:37:06.781Z,21.40
2022-08-31T12:39:06.851Z,21.80
2022-08-31T12:41:06.805Z,21.80
2022-08-31T12:43:06.764Z,22.00
2022-08-31T12:45:06.752Z,22.00
2022-08-31T12:47:06.823Z,22.00
2022-08-31T12:49:06.796Z,22.10
2022-08-31T12:51:06.791Z,22.80
2022-08-31T12:53:06.826Z,23.40
2022-08-31T12:55:09.221Z,23.40
2022-08-31T12:57:36.796Z,22.80
2022-08-31T12:59:57.344Z,22.80
2022-08-31T13:01:36.850Z,22.80
2022-08-31T13:03:36.871Z,23.20
2022-08-31T13:05:36.864Z,23.60
2022-08-31T13:07:36.840Z,23.60
2022-08-31T13:11:15.099Z,23.30
2022-08-31T13:13:15.148Z,23.30
2022-08-31T13:15:15.128Z,23.30
2022-08-31T13:17:15.285Z,23.30
2022-08-31T13:19:15.132Z,23.50
2022-08-31T13:21:15.119Z,23.50
2022-08-31T13:23:15.191Z,23.50
2022-08-31T13:25:15.099Z,23.50
2022-08-31T13:27:15.100Z,25.00
2022-08-31T13:29:15.114Z,25.00
2022-08-31T13:31:45.201Z,24.30
2022-08-31T13:33:45.174Z,24.30
2022-08-31T13:35:45.152Z,24.30
2022-08-31T13:37:45.135Z,24.30
2022-08-31T13:39:45.137Z,24.30
2022-08-31T13:41:45.201Z,24.30
2022-08-31T13:43:45.147Z,24.30
2022-08-31T13:45:45.197Z,24.30
2022-08-31T13:47:47.570Z,22.00
2022-08-31T13:49:45.157Z,22.00
2022-08-31T13:51:47.526Z,21.80
2022-08-31T13:53:45.187Z,21.80
2022-08-31T13:55:45.148Z,21.80
2022-08-31T13:57:45.216Z,22.30
2022-08-31T13:59:45.201Z,22.80
2022-08-31T14:01:45.200Z,22.80
2022-08-31T14:03:45.155Z,22.80
2022-08-31T14:05:45.229Z,23.60
2022-08-31T14:07:45.180Z,23.60
2022-08-31T14:09:45.178Z,23.30
2022-08-31T14:11:45.208Z,23.30
2022-08-31T14:13:45.181Z,23.30
2022-08-31T14:15:45.212Z,22.40
2022-08-31T14:18:23.881Z,22.20
2022-08-31T14:19:45.191Z,22.40
2022-08-31T14:21:45.184Z,22.40
2022-08-31T14:23:45.254Z,22.40
2022-08-31T14:25:45.187Z,22.40
2022-08-31T14:27:45.195Z,22.50
2022-08-31T14:29:45.196Z,22.50
2022-08-31T14:31:45.206Z,22.50
2022-08-31T14:33:45.204Z,22.50
2022-08-31T14:35:45.220Z,21.20
2022-08-31T14:37:45.183Z,21.20
2022-08-31T14:39:45.183Z,21.20
2022-08-31T14:41:45.181Z,21.20
2022-08-31T14:43:45.227Z,21.20
2022-08-31T14:45:45.237Z,21.40
2022-08-31T14:47:45.213Z,21.60
2022-08-31T14:49:45.230Z,21.70
2022-08-31T14:51:45.218Z,21.70
2022-08-31T14:53:45.181Z,21.80
2022-08-31T14:55:45.393Z,21.70
2022-08-31T14:57:45.647Z,21.70
2022-08-31T14:59:45.201Z,21.70
2022-08-31T15:01:45.228Z,21.60
2022-08-31T15:03:45.231Z,21.30
2022-08-31T15:05:45.249Z,21.20
2022-08-31T15:07:45.229Z,21.20
2022-08-31T15:09:45.232Z,21.20
2022-08-31T15:11:45.254Z,21.30
2022-08-31T15:13:45.218Z,21.40
2022-08-31T15:15:47.685Z,21.40
2022-08-31T15:17:45.206Z,21.40
2022-08-31T15:19:45.244Z,21.40
2022-08-31T15:21:46.768Z,21.40
2022-08-31T15:23:45.258Z,21.40
2022-08-31T15:25:45.239Z,21.40
2022-08-31T15:27:45.253Z,21.40
2022-08-31T15:29:45.261Z,21.40
2022-08-31T15:31:45.355Z,21.40
2022-08-31T15:33:45.216Z,21.30
2022-08-31T15:35:45.295Z,21.30
2022-08-31T15:38:15.264Z,21.30
2022-08-31T15:40:15.362Z,21.30
2022-08-31T15:42:15.251Z,21.40
2022-08-31T15:44:15.241Z,21.30
2022-08-31T15:46:15.274Z,21.40
2022-08-31T15:48:15.300Z,21.40
2022-08-31T15:50:15.375Z,21.40
2022-08-31T15:52:15.391Z,21.60
2022-08-31T15:54:22.354Z,21.60
2022-08-31T15:56:15.434Z,21.50
2022-08-31T15:58:15.790Z,21.50
2022-08-31T16:00:15.377Z,21.50
2022-08-31T16:02:15.495Z,21.50
2022-08-31T16:04:15.397Z,21.50
2022-08-31T16:06:15.385Z,21.50
2022-08-31T16:08:15.480Z,21.40
2022-08-31T16:10:19.334Z,21.40
2022-08-31T16:12:15.414Z,21.40
2022-08-31T16:14:15.382Z,21.40
2022-08-31T16:16:15.731Z,21.40
2022-08-31T16:18:15.587Z,21.30
2022-08-31T16:20:15.412Z,21.20
2022-08-31T16:22:15.395Z,21.20
2022-08-31T16:24:15.395Z,21.20
2022-08-31T16:26:16.754Z,21.20
2022-08-31T16:28:15.490Z,21.30
2022-08-31T16:30:15.415Z,21.20
2022-08-31T16:32:15.428Z,21.20
2022-08-31T16:34:15.441Z,21.20
2022-08-31T16:36:15.436Z,21.10
2022-08-31T16:38:15.494Z,21.10
2022-08-31T16:40:16.360Z,21.00
2022-08-31T16:42:15.446Z,21.10
2022-08-31T16:44:19.926Z,21.10
2022-08-31T16:46:39.490Z,21.10
2022-08-31T16:48:15.404Z,21.10
2022-08-31T16:50:15.497Z,21.00
2022-08-31T16:52:15.478Z,21.00
2022-08-31T16:54:15.442Z,21.00
2022-08-31T16:56:15.446Z,20.90
2022-08-31T16:58:29.641Z,20.80
2022-08-31T17:00:15.434Z,20.70
2022-08-31T17:02:15.561Z,20.70
2022-08-31T17:04:29.240Z,20.70
2022-08-31T17:06:15.488Z,20.60
2022-08-31T17:08:15.546Z,20.60
2022-08-31T17:10:15.461Z,20.60
2022-08-31T17:12:15.477Z,20.60
2022-08-31T17:14:15.478Z,20.60
2022-08-31T17:16:15.468Z,20.40
2022-08-31T17:18:15.536Z,20.40
2022-08-31T17:20:15.463Z,20.20
2022-08-31T17:22:21.349Z,20.20
2022-08-31T17:24:15.457Z,20.00
2022-08-31T17:26:15.495Z,20.00
2022-08-31T17:28:15.509Z,19.90
2022-08-31T17:30:15.531Z,19.60
2022-08-31T17:32:15.489Z,19.60
2022-08-31T17:34:15.460Z,19.60
2022-08-31T17:36:15.517Z,19.40
2022-08-31T17:38:15.541Z,19.30
2022-08-31T17:40:15.585Z,19.30
2022-08-31T17:42:15.486Z,19.10
2022-08-31T17:44:45.465Z,19.10
2022-08-31T17:46:45.527Z,19.00
2022-08-31T17:48:45.464Z,19.00
2022-08-31T17:50:45.456Z,18.80
2022-08-31T17:52:45.472Z,18.80
2022-08-31T17:54:45.467Z,18.80
2022-08-31T17:56:47.620Z,18.80
2022-08-31T17:58:45.480Z,18.80
2022-08-31T18:00:45.536Z,18.80
2022-08-31T18:02:46.027Z,18.80
2022-08-31T18:04:45.657Z,18.80
2022-08-31T18:06:45.576Z,18.80
2022-08-31T18:08:45.604Z,18.70
2022-08-31T18:10:45.524Z,18.80
2022-08-31T18:12:45.607Z,18.80
2022-08-31T18:14:45.620Z,18.80
2022-08-31T18:16:45.672Z,18.80
2022-08-31T18:18:45.535Z,18.60
2022-08-31T18:20:45.596Z,18.50
2022-08-31T18:22:50.115Z,18.50
2022-08-31T18:24:45.584Z,18.40
2022-08-31T18:26:45.526Z,18.40
2022-08-31T18:28:45.505Z,18.20
2022-08-31T18:30:45.542Z,18.20
2022-08-31T18:32:47.622Z,18.20
2022-08-31T18:34:45.533Z,18.10
2022-08-31T18:36:45.500Z,18.10
2022-08-31T18:38:45.578Z,18.10
2022-08-31T18:40:45.562Z,18.10
2022-08-31T18:42:45.617Z,17.90
2022-08-31T18:44:45.524Z,17.80
2022-08-31T18:46:45.582Z,17.80
2022-08-31T18:48:45.540Z,17.60
2022-08-31T18:50:45.606Z,17.60
2022-08-31T18:52:48.430Z,17.60
2022-08-31T18:54:45.516Z,17.60
2022-08-31T18:56:45.636Z,17.30
2022-08-31T18:58:45.616Z,17.20
2022-08-31T19:00:45.653Z,17.20
2022-08-31T19:02:45.652Z,17.20
2022-08-31T19:04:45.552Z,17.10
2022-08-31T19:06:45.719Z,17.00
2022-08-31T19:08:45.585Z,17.00
2022-08-31T19:10:45.551Z,17.00
2022-08-31T19:12:45.621Z,16.80
2022-08-31T19:14:45.529Z,16.80
2022-08-31T19:16:45.745Z,16.80
2022-08-31T19:18:45.528Z,16.80
2022-08-31T19:20:45.652Z,16.70
2022-08-31T19:22:45.664Z,16.70
2022-08-31T19:24:45.589Z,16.60
2022-08-31T19:26:45.632Z,16.60
2022-08-31T19:28:45.619Z,16.60
2022-08-31T19:30:45.559Z,16.50
2022-08-31T19:32:45.657Z,16.50
2022-08-31T19:34:46.451Z,16.30
2022-08-31T19:36:45.690Z,16.30
2022-08-31T19:38:45.656Z,16.20
2022-08-31T19:40:45.738Z,16.20
2022-08-31T19:42:59.956Z,16.10
2022-08-31T19:47:24.763Z,16.10
2022-08-31T19:49:15.652Z,16.00
2022-08-31T19:51:15.707Z,16.00
2022-08-31T19:53:20.827Z,16.00
2022-08-31T19:55:15.767Z,16.00
2022-08-31T19:57:15.725Z,16.00
2022-08-31T19:59:15.741Z,15.90
2022-08-31T20:01:15.738Z,15.80
2022-08-31T20:03:15.938Z,15.80
2022-08-31T20:05:15.678Z,15.80
2022-08-31T20:07:15.786Z,15.80
2022-08-31T20:09:15.638Z,15.80
2022-08-31T20:13:15.697Z,15.80
2022-08-31T20:19:15.805Z,15.60
2022-08-31T20:27:09.868Z,15.20
2022-08-31T20:29:09.319Z,15.20
2022-08-31T20:31:09.171Z,15.20
2022-08-31T20:33:09.150Z,15.00
2022-08-31T20:35:09.150Z,15.00
2022-08-31T20:37:09.147Z,15.00
2022-08-31T20:39:09.140Z,15.00
2022-08-31T20:41:09.252Z,15.00
2022-08-31T20:43:09.205Z,15.00
2022-08-31T20:45:09.149Z,14.80
2022-08-31T20:47:09.015Z,14.80
2022-08-31T20:49:09.056Z,14.80
2022-08-31T20:51:09.054Z,14.60
2022-08-31T20:53:09.105Z,14.60
2022-08-31T20:55:09.101Z,14.60
2022-08-31T20:57:09.121Z,14.60
2022-08-31T20:59:09.142Z,14.60
2022-08-31T21:01:09.028Z,14.60
2022-08-31T21:03:09.142Z,14.60
2022-08-31T21:05:37.483Z,14.60
2022-08-31T21:07:09.100Z,14.50
2022-08-31T21:09:09.063Z,14.40
2022-08-31T21:11:09.095Z,14.40
2022-08-31T21:13:09.171Z,14.40
2022-08-31T21:15:09.038Z,14.40
2022-08-31T21:17:09.027Z,14.40
2022-08-31T21:19:09.038Z,14.40
2022-08-31T21:21:39.110Z,14.30
2022-08-31T21:23:39.089Z,14.30
2022-08-31T21:25:39.037Z,14.30
2022-08-31T21:27:39.143Z,14.30
2022-08-31T21:29:39.236Z,14.30
2022-08-31T21:31:43.682Z,14.30
2022-08-31T21:33:39.039Z,14.30
2022-08-31T21:35:39.039Z,14.30
2022-08-31T21:37:39.112Z,14.20
2022-08-31T21:39:39.044Z,14.10
2022-08-31T21:41:39.417Z,14.10
2022-08-31T21:43:39.049Z,14.10
2022-08-31T21:45:39.089Z,14.10
2022-08-31T21:47:39.170Z,14.10
2022-08-31T21:49:39.081Z,14.10
2022-08-31T21:51:39.121Z,13.80
2022-08-31T21:53:40.284Z,13.80
2022-08-31T21:55:39.145Z,13.80
2022-08-31T21:57:39.501Z,13.80
2022-08-31T21:59:39.128Z,13.80
2022-08-31T22:01:42.043Z,13.80
2022-08-31T22:03:39.083Z,13.80
2022-08-31T22:05:39.089Z,13.80
2022-08-31T22:07:39.105Z,13.90
2022-08-31T22:09:39.066Z,13.90
2022-08-31T22:11:39.090Z,13.90
2022-08-31T22:13:39.110Z,13.80
2022-08-31T22:15:39.151Z,13.80
2022-08-31T22:17:59.587Z,13.70
2022-08-31T22:19:39.179Z,13.70
2022-08-31T22:21:39.094Z,13.70
2022-08-31T22:23:39.051Z,13.60
2022-08-31T22:25:39.101Z,13.60
2022-08-31T22:27:39.119Z,13.50
2022-08-31T22:29:39.101Z,13.60
2022-08-31T22:31:39.128Z,13.60
2022-08-31T22:33:39.234Z,13.60
2022-08-31T22:35:39.060Z,13.60
2022-08-31T22:37:39.316Z,13.60
2022-08-31T22:39:39.119Z,13.60
2022-08-31T22:41:39.094Z,13.60
2022-08-31T22:43:39.187Z,13.60
2022-08-31T22:45:39.095Z,13.70
2022-08-31T22:47:49.545Z,13.70
2022-08-31T22:49:39.087Z,13.70
2022-08-31T22:51:39.099Z,13.70
2022-08-31T22:53:39.102Z,13.80
2022-08-31T22:55:39.079Z,13.80
2022-08-31T22:57:39.185Z,13.80
2022-08-31T22:59:39.120Z,13.80
2022-08-31T23:01:39.151Z,13.80
2022-08-31T23:03:39.102Z,14.00
2022-08-31T23:05:39.118Z,14.10
2022-08-31T23:07:39.112Z,14.10
2022-08-31T23:09:39.147Z,14.10
2022-08-31T23:11:39.108Z,14.20
2022-08-31T23:13:39.103Z,14.20
2022-08-31T23:15:39.149Z,14.20
2022-08-31T23:17:39.229Z,14.20
2022-08-31T23:19:39.260Z,14.20
2022-08-31T23:21:39.121Z,14.20
2022-08-31T23:24:09.166Z,14.20
2022-08-31T23:26:09.139Z,14.20
2022-08-31T23:28:09.130Z,14.20
2022-08-31T23:30:09.084Z,14.20
2022-08-31T23:32:09.102Z,14.20
2022-08-31T23:34:09.152Z,14.30
2022-08-31T23:36:09.153Z,14.30
2022-08-31T23:38:09.158Z,14.30
2022-08-31T23:40:09.139Z,14.30
2022-08-31T23:42:09.152Z,14.20
2022-08-31T23:44:09.179Z,14.20
2022-08-31T23:46:09.155Z,14.20
2022-08-31T23:48:09.125Z,14.10
2022-08-31T23:50:09.153Z,14.10
2022-08-31T23:52:09.131Z,14.00
2022-08-31T23:54:09.165Z,14.00
2022-08-31T23:56:09.140Z,14.00
2022-08-31T23:58:09.592Z,14.00
